Portada
METAR-TAF:

METAR-TAF

Aeroports :

Illes Cocos, Austràlia

latitud: 12-11S, longitud: 096-49E, altitud: 3 m

Observació

L'informe es va fer fa 19 minuts, a les 14:00 UTC
Vent 7 kt del Est
Temperatura 28°C
Humitat 84%
Pressió 1010 hPa
Visibilitat 10 km o més

METAR: YPCC 141400Z AUTO 10007KT 9999 // NCD 28/25 Q1010

Hora: 20:49 (14:19 UTC)

Pronòstic

L'informe es va fer fa 3 hores i 13 minuts, a les 11:06 UTC
Pronòstic vàlid del 14 a les 12 UTC al 15 a les 12 UTC
Vent 10 kt del Est/Sud-Est
Visibilitat 10 km o més
Núvols disperses a una alçada de 2000 ft

TAF: YPCC 141106Z 1412/1512 11010KT 9999 SCT020

Observacions i pronòstics meteorològics de més de 4000 aeroports (METAR i TAF).

Les estacions disponibles són els punts grocs i vermells al mapa.

Posi el ratolí al punt desitjat per veure el nom de l'estació.

Feu clic per veure les observacions i els pronòstics meteorològics.

Per canviar el mapa: feu clic els botons verds amb una creu de color negre per apropar; al botó verd amb un guió per allunyar la imatge; o en les fletxes verdes per a mapes adjacents.


METAR-TAF: